Faust, Canada
Current Conditions -  °F | °C
As of 5:00 PM on Wednesday 22 Oct 2014 (Local Time) from CYZH Reporting Station
Overcast Overcast  
Wind Chill: 54°   Ceiling: 11000
Heat Index: 54°   Visibility: 9mi
Dew Point: 37°   Wind: 9mph
Humidity: 54%   Direction: 130°SE
Pressure: 29.53"   Gusts: NA
Location:  55.32°N, 115.72°W
Report Text: CYZH 222300Z AUTO 13008KT 9SM OVC110 12/03 A2953 RMK SLP017 DENSITY ALT 2400FT
Loading
Personal Weather Stations






























Interactive Weather Map
Tropical Storm Tracking
New forecast layout! Learn more

10-Day Weather Forecast

Advertisements
Track Severe Weather on mobile